Time,TemperatureF,DewpointF,PressureIn,WindDirection,WindDirectionDegrees,WindSpeedMPH,WindSpeedGustMPH,Humidity,HourlyPrecipIn,Conditions,Clouds,dailyrainin,SoftwareType,DateUTC
2014-09-30 00:04:00,57.4,50.2,30.04,West,267,0.0,12.0,77,0.00,,,0.00,Wunderground v.1.13,2014-09-30 07:04:00,
2014-09-30 00:14:00,57.5,48.5,30.04,NW,315,0.0,0.0,72,0.00,,,0.00,Wunderground v.1.13,2014-09-30 07:14:00,
2014-09-30 00:19:00,57.7,48.4,30.05,NW,314,0.0,0.0,71,0.00,,,0.00,Wunderground v.1.13,2014-09-30 07:19:00,
2014-09-30 00:24:00,57.7,47.2,30.05,West,264,1.0,1.0,68,0.00,,,0.00,Wunderground v.1.13,2014-09-30 07:24:00,
2014-09-30 00:34:00,57.6,46.3,30.05,NW,306,0.0,0.0,66,0.00,,,0.00,Wunderground v.1.13,2014-09-30 07:34:00,
2014-09-30 00:39:00,57.6,46.3,30.05,NW,319,0.0,0.0,66,0.00,,,0.00,Wunderground v.1.13,2014-09-30 07:39:00,
2014-09-30 00:44:00,57.6,45.9,30.05,NW,314,1.0,1.0,65,0.00,,,0.00,Wunderground v.1.13,2014-09-30 07:44:00,
2014-09-30 00:54:00,57.3,46.0,30.05,NW,311,0.0,0.0,66,0.00,,,0.00,Wunderground v.1.13,2014-09-30 07:54:00,
2014-09-30 00:59:00,57.1,47.0,30.06,NW,307,0.0,2.0,69,0.00,,,0.00,Wunderground v.1.13,2014-09-30 07:59:00,
2014-09-30 01:04:00,56.8,45.6,30.06,WNW,290,0.0,1.0,66,0.00,,,0.00,Wunderground v.1.13,2014-09-30 08:04:00,
2014-09-30 01:22:00,56.7,45.5,30.07,WNW,289,0.0,0.0,66,0.00,,,0.00,Wunderground v.1.13,2014-09-30 08:22:00,
2014-09-30 01:29:00,56.5,45.3,30.07,WNW,289,0.0,0.0,66,0.00,,,0.00,Wunderground v.1.13,2014-09-30 08:29:00,
2014-09-30 01:34:00,56.3,45.1,30.07,WNW,286,0.0,2.0,66,0.00,,,0.00,Wunderground v.1.13,2014-09-30 08:34:00,
2014-09-30 01:44:00,56.2,45.0,30.08,WNW,286,1.0,2.0,66,0.00,,,0.00,Wunderground v.1.13,2014-09-30 08:44:00,
2014-09-30 01:54:00,56.0,44.8,30.08,NNW,336,0.0,0.0,66,0.00,,,0.00,Wunderground v.1.13,2014-09-30 08:54:00,
2014-09-30 02:09:00,55.3,46.1,30.08,NNW,336,0.0,0.0,71,0.00,,,0.00,Wunderground v.1.13,2014-09-30 09:09:00,
2014-09-30 02:29:00,52.7,45.0,30.08,NNW,336,0.0,0.0,75,0.00,,,0.00,Wunderground v.1.13,2014-09-30 09:29:00,
2014-09-30 02:34:00,52.2,45.2,30.08,NNW,336,0.0,0.0,77,0.00,,,0.00,Wunderground v.1.13,2014-09-30 09:34:00,
2014-09-30 02:39:00,51.8,45.2,30.08,NNW,336,0.0,0.0,78,0.00,,,0.00,Wunderground v.1.13,2014-09-30 09:39:00,
2014-09-30 02:44:00,51.5,44.9,30.08,NNW,336,0.0,0.0,78,0.00,,,0.00,Wunderground v.1.13,2014-09-30 09:44:00,
2014-09-30 02:54:00,50.9,44.6,30.08,NNW,336,0.0,0.0,79,0.00,,,0.00,Wunderground v.1.13,2014-09-30 09:54:00,
2014-09-30 03:09:00,50.0,44.1,30.08,NNW,336,0.0,0.0,80,0.00,,,0.00,Wunderground v.1.13,2014-09-30 10:09:00,
2014-09-30 03:19:00,49.4,43.8,30.08,NNW,336,0.0,0.0,81,0.00,,,0.00,Wunderground v.1.13,2014-09-30 10:19:00,
2014-09-30 03:24:00,49.0,43.4,30.09,NNW,336,0.0,0.0,81,0.00,,,0.00,Wunderground v.1.13,2014-09-30 10:24:00,
2014-09-30 03:34:00,48.6,43.4,30.09,NNW,336,0.0,0.0,82,0.00,,,0.00,Wunderground v.1.13,2014-09-30 10:34:00,
2014-09-30 03:39:00,48.6,43.7,30.09,NNW,336,0.0,0.0,83,0.00,,,0.00,Wunderground v.1.13,2014-09-30 10:39:00,
2014-09-30 03:49:00,49.2,44.6,30.08,South,186,1.0,1.0,84,0.00,,,0.00,Wunderground v.1.13,2014-09-30 10:49:00,
2014-09-30 03:59:00,49.1,44.8,30.09,South,186,0.0,0.0,85,0.00,,,0.00,Wunderground v.1.13,2014-09-30 10:59:00,
2014-09-30 04:04:00,49.0,44.7,30.09,South,186,0.0,0.0,85,0.00,,,0.00,Wunderground v.1.13,2014-09-30 11:04:00,
2014-09-30 04:14:00,48.9,44.6,30.09,South,186,0.0,0.0,85,0.00,,,0.00,Wunderground v.1.13,2014-09-30 11:14:00,
2014-09-30 04:19:00,48.6,44.0,30.09,South,184,0.0,0.0,84,0.00,,,0.00,Wunderground v.1.13,2014-09-30 11:19:00,
2014-09-30 04:29:00,48.3,44.0,30.09,South,173,0.0,0.0,85,0.00,,,0.00,Wunderground v.1.13,2014-09-30 11:29:00,
2014-09-30 04:34:00,48.3,44.0,30.09,South,174,0.0,0.0,85,0.00,,,0.00,Wunderground v.1.13,2014-09-30 11:34:00,
2014-09-30 04:44:00,48.1,43.8,30.09,South,173,0.0,0.0,85,0.00,,,0.00,Wunderground v.1.13,2014-09-30 11:44:00,
2014-09-30 04:54:00,47.7,43.4,30.09,South,174,0.0,0.0,85,0.00,,,0.00,Wunderground v.1.13,2014-09-30 11:54:00,
2014-09-30 04:59:00,47.5,43.2,30.09,South,173,0.0,0.0,85,0.00,,,0.00,Wunderground v.1.13,2014-09-30 11:59:00,
2014-09-30 05:09:00,47.4,43.1,30.09,South,173,0.0,0.0,85,0.00,,,0.00,Wunderground v.1.13,2014-09-30 12:09:00,
2014-09-30 05:14:00,47.1,42.8,30.10,South,174,0.0,0.0,85,0.00,,,0.00,Wunderground v.1.13,2014-09-30 12:14:00,
2014-09-30 05:19:00,46.8,42.5,30.10,South,173,0.0,0.0,85,0.00,,,0.00,Wunderground v.1.13,2014-09-30 12:19:00,
2014-09-30 05:34:00,46.3,42.0,30.11,South,173,0.0,0.0,85,0.00,,,0.00,Wunderground v.1.13,2014-09-30 12:34:00,
2014-09-30 05:39:00,46.1,41.8,30.11,South,174,0.0,0.0,85,0.00,,,0.00,Wunderground v.1.13,2014-09-30 12:39:00,
2014-09-30 05:49:00,45.9,41.9,30.11,South,174,0.0,0.0,86,0.00,,,0.00,Wunderground v.1.13,2014-09-30 12:49:00,
2014-09-30 05:59:00,45.6,41.7,30.11,South,174,0.0,0.0,86,0.00,,,0.00,Wunderground v.1.13,2014-09-30 12:59:00,
2014-09-30 06:04:00,45.6,41.7,30.11,South,174,0.0,0.0,86,0.00,,,0.00,Wunderground v.1.13,2014-09-30 13:04:00,
2014-09-30 06:14:00,45.5,41.6,30.11,South,173,0.0,0.0,86,0.00,,,0.00,Wunderground v.1.13,2014-09-30 13:14:00,
2014-09-30 06:19:00,45.5,41.6,30.12,South,174,0.0,0.0,86,0.00,,,0.00,Wunderground v.1.13,2014-09-30 13:19:00,
2014-09-30 06:24:00,45.6,42.0,30.12,South,173,0.0,0.0,87,0.00,,,0.00,Wunderground v.1.13,2014-09-30 13:24:00,
2014-09-30 06:34:00,45.6,42.0,30.12,South,173,0.0,0.0,87,0.00,,,0.00,Wunderground v.1.13,2014-09-30 13:34:00,
2014-09-30 06:39:00,45.8,42.2,30.12,South,174,0.0,0.0,87,0.00,,,0.00,Wunderground v.1.13,2014-09-30 13:39:00,
2014-09-30 06:49:00,46.2,42.8,30.12,South,174,0.0,0.0,88,0.00,,,0.00,Wunderground v.1.13,2014-09-30 13:49:00,
2014-09-30 06:54:00,46.5,43.1,30.11,South,174,0.0,0.0,88,0.00,,,0.00,Wunderground v.1.13,2014-09-30 13:54:00,
2014-09-30 07:04:00,46.7,43.3,30.11,South,174,0.0,0.0,88,0.00,,,0.00,Wunderground v.1.13,2014-09-30 14:04:00,
2014-09-30 07:14:00,46.8,43.4,30.11,South,174,0.0,0.0,88,0.00,,,0.00,Wunderground v.1.13,2014-09-30 14:14:00,
2014-09-30 07:24:00,46.9,43.8,30.12,South,173,0.0,0.0,89,0.00,,,0.00,Wunderground v.1.13,2014-09-30 14:24:00,
2014-09-30 07:34:00,46.8,43.7,30.13,South,173,0.0,0.0,89,0.00,,,0.00,Wunderground v.1.13,2014-09-30 14:34:00,
2014-09-30 07:49:00,46.9,43.8,30.13,SSW,202,0.0,0.0,89,0.00,,,0.00,Wunderground v.1.13,2014-09-30 14:49:00,
2014-09-30 07:54:00,47.1,44.0,30.13,NE,40,0.0,0.0,89,0.00,,,0.00,Wunderground v.1.13,2014-09-30 14:54:00,
2014-09-30 08:04:00,47.5,44.7,30.13,West,281,0.0,0.0,90,0.00,,,0.00,Wunderground v.1.13,2014-09-30 15:04:00,
2014-09-30 08:14:00,48.0,45.2,30.14,West,281,0.0,0.0,90,0.00,,,0.00,Wunderground v.1.13,2014-09-30 15:14:00,
2014-09-30 08:19:00,48.6,46.1,30.13,West,281,0.0,0.0,91,0.00,,,0.00,Wunderground v.1.13,2014-09-30 15:19:00,
2014-09-30 08:29:00,49.6,47.1,30.13,West,280,0.0,0.0,91,0.00,,,0.00,Wunderground v.1.13,2014-09-30 15:29:00,
2014-09-30 08:34:00,49.9,47.4,30.13,West,281,0.0,0.0,91,0.00,,,0.00,Wunderground v.1.13,2014-09-30 15:34:00,
2014-09-30 08:44:00,50.8,48.0,30.13,West,280,0.0,0.0,90,0.00,,,0.00,Wunderground v.1.13,2014-09-30 15:44:00,
2014-09-30 08:49:00,51.4,48.0,30.13,West,281,0.0,0.0,88,0.00,,,0.00,Wunderground v.1.13,2014-09-30 15:49:00,
2014-09-30 08:54:00,51.9,48.2,30.13,West,281,0.0,0.0,87,0.00,,,0.00,Wunderground v.1.13,2014-09-30 15:54:00,
2014-09-30 09:04:00,52.9,48.2,30.13,West,280,0.0,0.0,84,0.00,,,0.00,Wunderground v.1.13,2014-09-30 16:04:00,
2014-09-30 09:14:00,54.6,48.6,30.13,SSW,202,0.0,0.0,80,0.00,,,0.00,Wunderground v.1.13,2014-09-30 16:14:00,
2014-09-30 09:19:00,55.2,48.1,30.13,South,187,0.0,0.0,77,0.00,,,0.00,Wunderground v.1.13,2014-09-30 16:19:00,
2014-09-30 09:24:00,55.4,48.3,30.13,South,188,0.0,0.0,77,0.00,,,0.00,Wunderground v.1.13,2014-09-30 16:24:00,
2014-09-30 09:34:00,55.7,47.9,30.13,SSE,160,0.0,0.0,75,0.00,,,0.00,Wunderground v.1.13,2014-09-30 16:34:00,
2014-09-30 09:39:00,55.8,48.3,30.14,SSE,161,0.0,0.0,76,0.00,,,0.00,Wunderground v.1.13,2014-09-30 16:39:00,
2014-09-30 09:49:00,56.2,48.4,30.13,SSE,160,0.0,0.0,75,0.00,,,0.00,Wunderground v.1.13,2014-09-30 16:49:00,
2014-09-30 09:59:00,56.3,48.1,30.14,SSW,201,0.0,0.0,74,0.00,,,0.00,Wunderground v.1.13,2014-09-30 16:59:00,
2014-09-30 10:04:00,56.3,48.1,30.14,WNW,285,0.0,0.0,74,0.00,,,0.00,Wunderground v.1.13,2014-09-30 17:04:00,
2014-09-30 10:14:00,56.7,48.1,30.14,WNW,286,0.0,0.0,73,0.00,,,0.00,Wunderground v.1.13,2014-09-30 17:14:00,
2014-09-30 10:19:00,56.9,48.0,30.14,WNW,286,0.0,0.0,72,0.00,,,0.00,Wunderground v.1.13,2014-09-30 17:19:00,
2014-09-30 10:25:00,57.2,47.9,30.14,WNW,286,0.0,0.0,71,0.00,,,0.00,Wunderground v.1.13,2014-09-30 17:25:00,
2014-09-30 10:39:00,58.5,48.4,30.14,WSW,247,0.0,2.0,69,0.00,,,0.00,Wunderground v.1.13,2014-09-30 17:39:00,
2014-09-30 10:44:00,59.0,48.4,30.14,WSW,246,0.0,1.0,68,0.00,,,0.00,Wunderground v.1.13,2014-09-30 17:44:00,
2014-09-30 10:49:00,59.2,48.2,30.14,WSW,243,0.0,0.0,67,0.00,,,0.00,Wunderground v.1.13,2014-09-30 17:49:00,
2014-09-30 10:54:00,59.7,48.3,30.14,WSW,254,0.0,0.0,66,0.00,,,0.00,Wunderground v.1.13,2014-09-30 17:54:00,
2014-09-30 11:04:00,60.9,48.6,30.14,WSW,254,0.0,0.0,64,0.00,,,0.00,Wunderground v.1.13,2014-09-30 18:04:00,
2014-09-30 11:14:00,61.8,47.8,30.14,West,280,1.0,1.0,60,0.00,,,0.00,Wunderground v.1.13,2014-09-30 18:14:00,
2014-09-30 11:24:00,63.0,49.3,30.14,SE,141,0.0,0.0,61,0.00,,,0.00,Wunderground v.1.13,2014-09-30 18:24:00,
2014-09-30 11:34:00,64.4,48.4,30.14,North,350,0.0,0.0,56,0.00,,,0.00,Wunderground v.1.13,2014-09-30 18:34:00,
2014-09-30 11:44:00,65.1,48.0,30.13,South,183,0.0,0.0,54,0.00,,,0.00,Wunderground v.1.13,2014-09-30 18:44:00,
2014-09-30 11:54:00,65.8,47.2,30.13,West,270,1.0,2.0,51,0.00,,,0.00,Wunderground v.1.13,2014-09-30 18:54:00,
2014-09-30 11:59:00,66.0,46.8,30.13,West,260,1.0,1.0,50,0.00,,,0.00,Wunderground v.1.13,2014-09-30 18:59:00,
2014-09-30 12:04:00,66.3,47.1,30.13,East,87,1.0,1.0,50,0.00,,,0.00,Wunderground v.1.13,2014-09-30 19:04:00,
2014-09-30 12:14:00,66.5,46.7,30.13,NW,323,1.0,1.0,49,0.00,,,0.00,Wunderground v.1.13,2014-09-30 19:14:00,
2014-09-30 12:24:00,66.7,45.3,30.13,NW,306,1.0,2.0,46,0.00,,,0.00,Wunderground v.1.13,2014-09-30 19:24:00,
2014-09-30 12:29:00,65.9,44.5,30.13,NNW,340,2.0,2.0,46,0.00,,,0.00,Wunderground v.1.13,2014-09-30 19:29:00,
2014-09-30 12:44:00,65.8,43.9,30.12,NW,312,1.0,1.0,45,0.00,,,0.00,Wunderground v.1.13,2014-09-30 19:44:00,
2014-09-30 12:59:00,67.2,43.3,30.12,NNW,331,0.0,0.0,42,0.00,,,0.00,Wunderground v.1.13,2014-09-30 19:59:00,
2014-09-30 13:09:00,67.2,44.5,30.12,WNW,288,1.0,1.0,44,0.00,,,0.00,Wunderground v.1.13,2014-09-30 20:09:00,
2014-09-30 13:19:00,68.6,42.0,30.11,WNW,284,0.0,0.0,38,0.00,,,0.00,Wunderground v.1.13,2014-09-30 20:19:00,
2014-09-30 13:29:00,69.4,42.7,30.11,NNW,347,1.0,1.0,38,0.00,,,0.00,Wunderground v.1.13,2014-09-30 20:29:00,
2014-09-30 13:39:00,68.2,41.6,30.12,NNW,327,1.0,1.0,38,0.00,,,0.00,Wunderground v.1.13,2014-09-30 20:39:00,
2014-09-30 13:44:00,68.2,42.3,30.11,NW,326,2.0,2.0,39,0.00,,,0.00,Wunderground v.1.13,2014-09-30 20:44:00,
2014-09-30 13:49:00,68.7,42.7,30.11,NNW,346,2.0,3.0,39,0.00,,,0.00,Wunderground v.1.13,2014-09-30 20:49:00,
2014-09-30 13:59:00,69.6,42.2,30.10,WNW,287,3.0,3.0,37,0.00,,,0.00,Wunderground v.1.13,2014-09-30 20:59:00,
2014-09-30 14:04:00,69.6,41.5,30.10,North,355,1.0,1.0,36,0.00,,,0.00,Wunderground v.1.13,2014-09-30 21:04:00,
2014-09-30 14:14:00,69.0,40.9,30.10,NW,325,1.0,1.0,36,0.00,,,0.00,Wunderground v.1.13,2014-09-30 21:14:00,
2014-09-30 14:19:00,69.5,41.4,30.10,NNW,346,1.0,4.0,36,0.00,,,0.00,Wunderground v.1.13,2014-09-30 21:19:00,
2014-09-30 14:29:00,70.6,41.6,30.09,North,350,1.0,1.0,35,0.00,,,0.00,Wunderground v.1.13,2014-09-30 21:29:00,
2014-09-30 14:39:00,71.3,41.5,30.09,NNE,30,1.0,1.0,34,0.00,,,0.00,Wunderground v.1.13,2014-09-30 21:39:00,
2014-09-30 14:49:00,71.1,41.3,30.09,NE,34,1.0,1.0,34,0.00,,,0.00,Wunderground v.1.13,2014-09-30 21:49:00,
2014-09-30 14:54:00,70.7,41.7,30.09,North,355,0.0,1.0,35,0.00,,,0.00,Wunderground v.1.13,2014-09-30 21:54:00,
2014-09-30 14:59:00,70.5,42.2,30.08,NNW,343,1.0,1.0,36,0.00,,,0.00,Wunderground v.1.13,2014-09-30 21:59:00,
2014-09-30 15:04:00,70.7,41.7,30.09,North,350,2.0,4.0,35,0.00,,,0.00,Wunderground v.1.13,2014-09-30 22:04:00,
2014-09-30 15:14:00,70.9,42.6,30.09,West,261,2.0,9.0,36,0.00,,,0.00,Wunderground v.1.13,2014-09-30 22:14:00,
2014-09-30 15:24:00,71.0,42.7,30.08,North,360,2.0,2.0,36,0.00,,,0.00,Wunderground v.1.13,2014-09-30 22:24:00,
2014-09-30 15:29:00,71.4,41.6,30.08,ENE,74,1.0,1.0,34,0.00,,,0.00,Wunderground v.1.13,2014-09-30 22:29:00,
2014-09-30 15:39:00,70.9,42.6,30.07,NNW,348,1.0,1.0,36,0.00,,,0.00,Wunderground v.1.13,2014-09-30 22:39:00,
2014-09-30 15:54:00,70.9,41.1,30.07,ENE,71,0.0,1.0,34,0.00,,,0.00,Wunderground v.1.13,2014-09-30 22:54:00,
2014-09-30 15:59:00,70.9,41.9,30.07,North,355,0.0,1.0,35,0.00,,,0.00,Wunderground v.1.13,2014-09-30 22:59:00,
2014-09-30 16:04:00,70.9,41.1,30.07,WNW,294,1.0,2.0,34,0.00,,,0.00,Wunderground v.1.13,2014-09-30 23:04:00,
2014-09-30 16:14:00,70.9,41.9,30.07,WNW,299,2.0,9.0,35,0.00,,,0.00,Wunderground v.1.13,2014-09-30 23:14:00,
2014-09-30 16:19:00,70.6,42.3,30.07,NW,319,3.0,10.0,36,0.00,,,0.00,Wunderground v.1.13,2014-09-30 23:19:00,
2014-09-30 16:29:00,70.4,42.2,30.07,North,10,3.0,3.0,36,0.00,,,0.00,Wunderground v.1.13,2014-09-30 23:29:00,
2014-09-30 16:39:00,70.4,42.2,30.07,WNW,285,2.0,2.0,36,0.00,,,0.00,Wunderground v.1.13,2014-09-30 23:39:00,
2014-09-30 16:49:00,70.1,42.6,30.07,NW,320,2.0,2.0,37,0.00,,,0.00,Wunderground v.1.13,2014-09-30 23:49:00,
2014-09-30 16:59:00,70.2,42.7,30.07,North,350,0.0,0.0,37,0.00,,,0.00,Wunderground v.1.13,2014-09-30 23:59:00,
2014-09-30 17:04:00,70.4,42.2,30.06,North,350,1.0,7.0,36,0.00,,,0.00,Wunderground v.1.13,2014-10-01 00:04:00,
2014-09-30 17:14:00,69.5,42.1,30.06,NW,312,4.0,4.0,37,0.00,,,0.00,Wunderground v.1.13,2014-10-01 00:14:00,
2014-09-30 17:24:00,69.3,42.6,30.07,NNW,337,2.0,2.0,38,0.00,,,0.00,Wunderground v.1.13,2014-10-01 00:24:00,
2014-09-30 17:34:00,69.2,43.2,30.07,West,276,2.0,5.0,39,0.00,,,0.00,Wunderground v.1.13,2014-10-01 00:34:00,
2014-09-30 17:44:00,68.8,41.5,30.07,WNW,300,2.0,3.0,37,0.00,,,0.00,Wunderground v.1.13,2014-10-01 00:44:00,
2014-09-30 17:49:00,68.5,42.6,30.07,NW,320,2.0,2.0,39,0.00,,,0.00,Wunderground v.1.13,2014-10-01 00:49:00,
2014-09-30 17:59:00,67.9,42.7,30.07,North,355,2.0,4.0,40,0.00,,,0.00,Wunderground v.1.13,2014-10-01 00:59:00,
2014-09-30 18:04:00,67.6,43.1,30.07,NW,314,2.0,2.0,41,0.00,,,0.00,Wunderground v.1.13,2014-10-01 01:04:00,
2014-09-30 18:14:00,66.5,43.3,30.07,NW,306,2.0,2.0,43,0.00,,,0.00,Wunderground v.1.13,2014-10-01 01:14:00,
2014-09-30 18:19:00,66.0,42.9,30.07,NW,325,2.0,2.0,43,0.00,,,0.00,Wunderground v.1.13,2014-10-01 01:19:00,
2014-09-30 18:29:00,65.3,43.4,30.07,WNW,300,1.0,3.0,45,0.00,,,0.00,Wunderground v.1.13,2014-10-01 01:29:00,